Time;durP1;ratioP1;P1;durP2;ratioP2;P2;SDS_P1;SDS_P2;PMS_P1;PMS_P2;Temp;Humidity;BMP_temperature;BMP_pressure;BME280_temperature;BME280_humidity;BME280_pressure;Samples;Min_cycle;Max_cycle;Signal;HPM_P1;HPM_P2
2022/09/21 00:02:02;;;;;;;12.25;6.88;;;15.60;99.90;;;15.86;74.52;102534.72;4823811;29;20053;-72
2022/09/21 00:04:31;;;;;;;11.82;7.72;;;15.50;99.90;;;15.86;74.10;102530.28;4823780;29;20074;-72
2022/09/21 00:07:00;;;;;;;11.32;7.13;;;15.40;99.90;;;15.87;74.07;102531.19;4823882;29;20050;-72
2022/09/21 00:09:29;;;;;;;12.07;6.95;;;15.40;99.90;;;15.81;73.71;102532.09;4823758;29;20569;-72
2022/09/21 00:12:00;;;;;;;10.93;8.00;;;15.40;99.90;;;15.70;72.96;102531.16;4824710;29;20055;-72
2022/09/21 00:14:30;;;;;;;10.50;7.95;;;15.30;99.90;;;15.66;72.87;102531.19;4826149;29;20057;-72
2022/09/21 00:16:59;;;;;;;13.35;8.15;;;15.20;99.90;;;15.69;73.37;102529.41;4841312;29;20141;-72
2022/09/21 00:19:27;;;;;;;14.13;8.02;;;15.20;99.90;;;15.72;74.26;102529.38;4841452;29;20051;-72
2022/09/21 00:21:56;;;;;;;9.13;7.63;;;15.20;99.90;;;15.65;74.48;102524.94;4827314;29;20052;-71
2022/09/21 00:24:26;;;;;;;7.80;6.43;;;15.20;99.90;;;15.63;74.89;102521.38;4827152;29;20039;-73
2022/09/21 00:26:55;;;;;;;7.32;6.57;;;15.20;99.90;;;15.60;75.01;102520.50;4827149;29;20061;-73
2022/09/21 00:29:25;;;;;;;9.82;6.88;;;15.10;99.90;;;15.51;75.28;102518.69;4841019;29;20528;-73
2022/09/21 00:31:54;;;;;;;14.35;7.20;;;15.10;99.90;;;15.50;75.42;102521.34;4824905;29;20577;-73
2022/09/21 00:34:23;;;;;;;14.57;6.80;;;15.10;99.90;;;15.37;75.62;102518.63;4826926;29;20130;-72
2022/09/21 00:36:52;;;;;;;11.07;7.25;;;15.00;99.90;;;15.56;75.66;102524.94;4841098;29;20065;-73
2022/09/21 00:39:21;;;;;;;12.63;7.55;;;15.10;99.90;;;15.52;75.23;102527.59;4826914;29;20497;-73
2022/09/21 00:41:52;;;;;;;13.82;8.25;;;15.10;99.90;;;15.49;74.49;102530.22;4840845;29;20058;-72
2022/09/21 00:44:31;;;;;;;14.40;7.88;;;15.10;99.90;;;15.38;74.26;102512.41;4825726;29;20478;-72
2022/09/21 00:47:07;;;;;;;10.63;5.53;;;15.10;99.90;;;15.39;73.62;102523.94;4826911;29;20050;-73
2022/09/21 00:49:37;;;;;;;7.47;5.20;;;15.10;99.90;;;15.33;73.73;102516.84;4841020;29;20051;-73
2022/09/21 00:52:07;;;;;;;5.82;5.13;;;15.00;99.90;;;15.20;73.30;102517.69;4826515;29;20042;-72
2022/09/21 00:54:43;;;;;;;5.97;4.93;;;14.90;99.90;;;15.27;73.04;102531.94;4826779;29;20129;-72
2022/09/21 00:57:13;;;;;;;10.50;5.60;;;14.90;99.90;;;14.69;73.13;102421.56;4840817;29;20496;-72
2022/09/21 00:59:45;;;;;;;9.00;5.20;;;14.90;99.90;;;15.24;73.14;102523.91;4840733;29;20493;-72
2022/09/21 01:02:14;;;;;;;10.95;5.50;;;14.80;99.90;;;15.28;73.07;102525.72;4826788;29;20050;-73
2022/09/21 01:04:44;;;;;;;9.68;5.65;;;14.90;99.90;;;15.20;73.31;102509.69;4826339;29;20460;-73
2022/09/21 01:07:19;;;;;;;6.88;5.63;;;14.90;99.90;;;15.21;72.94;102514.13;4826387;29;20050;-72
2022/09/21 01:09:54;;;;;;;7.15;5.38;;;14.90;99.90;;;15.30;72.78;102523.94;4826371;29;20050;-73
2022/09/21 01:12:42;;;;;;;7.90;5.30;;;14.90;99.90;;;15.08;72.96;102498.09;4826422;29;20053;-72
2022/09/21 01:15:29;;;;;;;8.10;6.13;;;14.90;99.90;;;15.20;73.18;102504.38;4826523;29;20050;-72
2022/09/21 01:18:12;;;;;;;7.05;5.55;;;14.90;99.90;;;15.26;72.95;102523.03;4826232;29;20058;-73
2022/09/21 01:21:14;;;;;;;10.20;5.70;;;14.90;99.90;;;15.30;72.82;102519.50;4825026;29;20050;-72
2022/09/21 01:24:45;;;;;;;10.43;5.95;;;14.90;99.90;;;15.33;72.29;102521.25;4839088;29;20065;-72
2022/09/21 01:27:51;;;;;;;;;;;14.90;99.90;;;15.17;72.33;102493.72;4804615;29;20072;-72
2022/09/21 01:30:22;;;;;;;8.60;5.18;;;15.00;99.90;;;15.18;73.42;102497.22;4840156;29;19928;-72
2022/09/21 01:32:58;;;;;;;8.13;5.45;;;14.90;99.90;;;14.65;73.69;102432.22;4825963;29;20129;-72
2022/09/21 01:35:31;;;;;;;9.80;5.45;;;14.70;99.90;;;14.71;74.57;102513.03;4825984;29;20121;-72
2022/09/21 01:38:06;;;;;;;6.57;5.53;;;14.20;99.90;;;14.62;75.41;102513.00;4825919;29;20047;-72
2022/09/21 01:40:40;;;;;;;9.20;5.70;;;14.10;99.90;;;14.68;75.29;102502.38;4840152;29;20082;-72
2022/09/21 01:43:14;;;;;;;11.15;5.82;;;14.20;99.90;;;14.91;75.14;102519.34;4825968;29;20125;-72
2022/09/21 01:45:50;;;;;;;6.80;4.88;;;14.40;99.90;;;15.00;75.26;102540.72;4839834;29;20046;-72
2022/09/21 01:48:22;;;;;;;7.15;5.15;;;14.50;99.90;;;15.08;75.27;102522.06;4825777;29;20046;-72
2022/09/21 01:50:54;;;;;;;7.85;5.15;;;14.60;99.90;;;15.05;75.30;102517.66;4839596;29;20497;-72
2022/09/21 01:53:28;;;;;;;9.32;5.45;;;14.60;99.90;;;14.99;75.71;102504.31;4825874;29;20043;-72
2022/09/21 01:56:01;;;;;;;12.70;5.30;;;14.70;99.90;;;15.13;75.98;102507.91;4825594;29;20074;-71
2022/09/21 01:58:36;;;;;;;9.93;5.60;;;14.70;99.90;;;15.22;76.17;102529.25;4825658;29;20078;-72
2022/09/21 02:01:12;;;;;;;8.52;4.97;;;14.80;99.90;;;15.34;76.25;102520.41;4824232;29;20065;-73
2022/09/21 02:03:44;;;;;;;7.43;5.30;;;14.90;99.90;;;15.33;75.82;102522.16;4825809;29;20053;-72
2022/09/21 02:06:15;;;;;;;7.25;4.88;;;15.00;99.90;;;15.39;75.08;102503.50;4839504;29;20060;-72
2022/09/21 02:08:44;;;;;;;;;;;15.10;99.90;;;15.51;74.08;102508.00;4840062;29;20092;-72
2022/09/21 02:11:12;;;;;;;9.48;4.10;;;15.10;99.90;;;15.61;72.96;102516.91;4825290;29;19924;-72
2022/09/21 02:13:46;;;;;;;8.13;5.53;;;15.20;99.90;;;15.69;73.88;102521.38;4825307;29;20046;-72
2022/09/21 02:16:38;;;;;;;8.27;4.82;;;15.20;99.90;;;15.79;73.59;102527.63;4825615;29;20118;-73
2022/09/21 02:19:14;;;;;;;7.88;5.25;;;15.30;99.90;;;15.87;73.34;102531.19;4825299;29;20046;-73
2022/09/21 02:21:57;;;;;;;9.52;5.15;;;15.40;99.90;;;15.92;73.30;102524.06;4825349;29;20058;-66
2022/09/21 02:24:40;;;;;;;7.18;5.10;;;15.40;99.90;;;15.97;73.77;102523.16;4825633;29;20058;-66
2022/09/21 02:27:22;;;;;;;7.78;5.13;;;15.50;99.90;;;16.03;73.84;102528.50;4825552;29;20572;-66
2022/09/21 02:29:59;;;;;;;6.60;4.95;;;15.60;99.90;;;16.07;73.64;102535.63;4825492;29;20042;-66
2022/09/21 02:32:36;;;;;;;9.60;5.30;;;15.60;99.90;;;16.08;73.08;102531.19;4825325;29;20129;-66
2022/09/21 02:35:16;;;;;;;8.68;5.32;;;15.70;99.90;;;16.15;72.47;102533.84;4825635;29;20137;-67
2022/09/21 02:37:53;;;;;;;7.75;5.25;;;15.70;99.90;;;16.24;72.35;102525.81;4839328;29;20058;-66
2022/09/21 02:40:29;;;;;;;10.32;5.10;;;15.70;99.90;;;16.21;71.94;102533.84;4825290;29;20054;-66
2022/09/21 02:43:05;;;;;;;7.68;4.68;;;15.80;99.90;;;16.16;71.64;102526.75;4839454;29;20062;-66
2022/09/21 02:45:41;;;;;;;16.48;4.90;;;15.70;99.90;;;16.21;71.29;102523.16;4825578;29;20046;-65
2022/09/21 02:48:15;;;;;;;9.75;5.00;;;15.80;99.90;;;16.27;71.32;102522.28;4825263;29;20053;-65
2022/09/21 02:50:49;;;;;;;10.07;5.28;;;15.80;99.90;;;16.30;71.09;102519.59;4825461;29;20054;-65
2022/09/21 02:53:24;;;;;;;9.52;5.22;;;15.80;99.90;;;16.35;70.90;102515.16;4825081;29;20057;-65
2022/09/21 02:55:55;;;;;;;7.13;4.82;;;15.90;99.90;;;16.35;71.10;102519.59;4825422;29;20043;-66
2022/09/21 02:58:27;;;;;;;8.77;5.20;;;15.90;99.90;;;16.30;71.11;102518.72;4825318;29;20416;-66
2022/09/21 03:00:58;;;;;;;9.15;4.70;;;15.90;99.90;;;16.29;72.23;102520.50;4825315;29;20058;-65
2022/09/21 03:03:28;;;;;;;11.07;5.43;;;15.80;99.90;;;16.25;72.08;102521.38;4824991;29;20072;-66
2022/09/21 03:05:56;;;;;;;9.10;4.75;;;15.80;99.90;;;15.56;71.93;102407.56;4825483;29;20088;-65
2022/09/21 03:08:25;;;;;;;7.38;4.40;;;15.80;99.90;;;16.13;71.98;102506.25;4825204;29;20043;-65
2022/09/21 03:10:54;;;;;;;10.02;4.60;;;15.80;99.90;;;16.26;72.08;102520.47;4824899;29;20053;-66
2022/09/21 03:13:22;;;;;;;10.00;4.72;;;15.80;99.90;;;16.27;72.10;102525.84;4824782;29;20042;-65
2022/09/21 03:15:59;;;;;;;6.25;4.80;;;15.80;99.90;;;16.25;72.70;102529.41;4825054;29;20041;-66
2022/09/21 03:18:29;;;;;;;6.75;5.03;;;15.80;99.90;;;16.28;73.15;102530.28;4838920;29;20110;-66
2022/09/21 03:20:58;;;;;;;8.07;4.68;;;15.90;99.90;;;16.30;73.50;102527.59;4824806;29;20057;-66
2022/09/21 03:23:26;;;;;;;11.23;5.75;;;15.80;99.90;;;16.28;73.31;102532.03;4824699;29;20050;-68
2022/09/21 03:25:55;;;;;;;8.75;5.72;;;15.80;99.90;;;16.25;73.54;102526.72;4824718;29;20052;-66
2022/09/21 03:28:24;;;;;;;7.53;5.22;;;15.80;99.90;;;16.11;73.67;102501.81;4824669;29;20054;-65
2022/09/21 03:30:52;;;;;;;9.95;5.43;;;15.80;99.90;;;16.15;74.07;102525.84;4824731;29;20099;-65
2022/09/21 03:33:21;;;;;;;5.75;4.97;;;15.70;99.90;;;16.08;74.15;102525.84;4824741;29;20053;-65
2022/09/21 03:35:52;;;;;;;7.00;5.10;;;15.60;99.90;;;15.97;74.22;102527.63;4824577;29;20054;-66
2022/09/21 03:38:21;;;;;;;8.73;5.70;;;15.50;99.90;;;15.92;74.54;102524.06;4824833;29;20050;-65
2022/09/21 03:40:50;;;;;;;8.40;5.88;;;15.50;99.90;;;15.95;74.24;102532.09;4824721;29;20050;-65
2022/09/21 03:43:19;;;;;;;9.88;5.50;;;15.50;99.90;;;15.87;74.03;102526.72;4824654;29;20050;-66
2022/09/21 03:45:48;;;;;;;8.38;5.40;;;15.40;99.90;;;15.74;74.67;102532.03;4823887;29;20042;-66
2022/09/21 03:48:16;;;;;;;6.65;5.25;;;15.30;99.90;;;15.68;74.65;102537.41;4824702;29;20094;-66
2022/09/21 03:50:45;;;;;;;8.43;5.63;;;15.30;99.90;;;15.68;74.85;102537.41;4824351;29;20485;-65
2022/09/21 03:53:15;;;;;;;6.95;5.28;;;15.20;99.90;;;15.56;74.60;102516.94;4824477;29;20057;-66
2022/09/21 03:55:43;;;;;;;6.88;5.18;;;15.20;99.90;;;15.57;74.95;102542.72;4824328;29;20054;-66
2022/09/21 03:58:11;;;;;;;8.02;5.35;;;15.20;99.90;;;15.48;74.99;102536.47;4824250;29;20067;-65
2022/09/21 04:00:40;;;;;;;11.60;6.47;;;15.10;99.90;;;15.47;74.99;102540.91;4824227;29;20057;-66
2022/09/21 04:03:08;;;;;;;9.27;5.15;;;15.00;99.90;;;15.45;75.54;102544.47;4824186;29;20050;-67
2022/09/21 04:05:38;;;;;;;5.18;4.78;;;15.00;99.90;;;15.43;75.74;102539.13;4824194;29;20051;-65
2022/09/21 04:08:08;;;;;;;11.50;5.43;;;15.00;99.90;;;15.37;76.44;102531.06;4824459;29;20065;-66
2022/09/21 04:10:41;;;;;;;10.48;5.28;;;14.90;99.90;;;15.34;76.56;102539.97;4838747;29;20062;-66
2022/09/21 04:13:12;;;;;;;8.23;5.63;;;14.90;99.90;;;15.11;76.20;102499.03;4824359;29;20074;-66
2022/09/21 04:15:41;;;;;;;5.50;5.00;;;14.90;99.90;;;15.26;75.92;102536.38;4824387;29;20081;-66
2022/09/21 04:18:09;;;;;;;7.00;5.60;;;14.80;99.90;;;15.22;75.87;102531.91;4824072;29;20050;-66
2022/09/21 04:20:37;;;;;;;7.18;5.10;;;14.80;99.90;;;15.24;75.69;102534.59;4824019;29;20125;-65
2022/09/21 04:23:08;;;;;;;8.73;5.45;;;14.80;99.90;;;15.22;75.71;102533.69;4823943;29;20050;-66
2022/09/21 04:25:37;;;;;;;7.75;5.72;;;14.80;99.90;;;15.14;75.60;102531.00;4824299;29;20059;-66
2022/09/21 04:28:06;;;;;;;6.20;5.15;;;14.70;99.90;;;15.13;75.95;102531.91;4824164;29;20050;-66
2022/09/21 04:30:35;;;;;;;6.50;5.47;;;14.70;99.90;;;15.10;76.24;102530.97;4822057;29;20537;-66
2022/09/21 04:33:05;;;;;;;5.32;4.53;;;14.60;99.90;;;15.11;76.67;102536.34;4824161;29;20454;-66
2022/09/21 04:35:33;;;;;;;5.10;4.57;;;14.60;99.90;;;15.13;76.60;102534.56;4823863;29;20049;-66
2022/09/21 04:38:02;;;;;;;4.40;4.00;;;14.60;99.90;;;15.15;76.74;102521.22;4823832;29;20048;-67
2022/09/21 04:40:30;;;;;;;6.22;4.15;;;14.70;99.90;;;14.35;76.88;102404.59;4823955;29;20046;-66
2022/09/21 04:43:00;;;;;;;6.63;4.30;;;14.70;99.90;;;15.08;76.91;102538.97;4823827;29;20046;-67
2022/09/21 04:45:28;;;;;;;6.57;4.72;;;14.60;99.90;;;15.09;76.89;102534.53;4837891;29;20054;-67
2022/09/21 04:47:57;;;;;;;5.97;4.78;;;14.60;99.90;;;15.07;76.71;102534.53;4823892;29;20050;-68
2022/09/21 04:50:25;;;;;;;5.70;5.10;;;14.60;99.90;;;15.04;76.71;102533.66;4823703;29;20058;-67
2022/09/21 04:53:04;;;;;;;5.07;4.53;;;14.60;99.90;;;14.95;76.92;102534.47;4823828;29;20055;-67
2022/09/21 04:55:33;;;;;;;7.13;5.32;;;14.50;99.90;;;14.93;76.71;102533.59;4823874;29;20133;-66
2022/09/21 04:58:03;;;;;;;4.65;4.25;;;14.50;99.90;;;14.96;77.03;102533.59;4824362;29;20054;-66
2022/09/21 05:00:31;;;;;;;6.05;5.15;;;14.50;99.90;;;14.89;77.38;102538.88;4826885;29;20042;-66
2022/09/21 05:02:59;;;;;;;6.82;5.55;;;14.50;99.90;;;14.93;77.08;102538.91;4826866;29;20050;-67
2022/09/21 05:05:28;;;;;;;12.32;7.05;;;14.50;99.90;;;14.77;76.94;102515.72;4826790;29;20038;-66
2022/09/21 05:07:56;;;;;;;9.10;8.05;;;14.50;99.90;;;14.85;76.83;102530.00;4827045;29;20058;-67
2022/09/21 05:10:24;;;;;;;11.52;7.95;;;14.40;99.90;;;14.89;77.31;102533.56;4826999;29;20054;-68
2022/09/21 05:12:52;;;;;;;11.13;7.97;;;14.40;99.90;;;14.90;77.18;102535.34;4826621;29;20408;-66
2022/09/21 05:15:22;;;;;;;9.43;7.07;;;14.50;99.90;;;14.42;76.98;102461.41;4826599;29;20046;-66
2022/09/21 05:17:50;;;;;;;7.68;5.78;;;14.40;99.90;;;14.78;76.86;102545.94;4826537;29;20133;-68
2022/09/21 05:20:19;;;;;;;7.60;6.00;;;14.40;99.90;;;14.90;76.75;102530.03;4826419;29;20042;-67
2022/09/21 05:22:47;;;;;;;8.65;5.50;;;14.50;99.90;;;14.89;77.09;102526.47;4826640;29;20073;-67
2022/09/21 05:25:16;;;;;;;7.43;5.97;;;14.50;99.90;;;14.98;77.37;102536.28;4826953;29;20061;-67
2022/09/21 05:27:44;;;;;;;6.78;5.10;;;14.50;99.90;;;14.93;77.23;102541.56;4826824;29;20043;-67
2022/09/21 05:30:15;;;;;;;6.90;5.40;;;14.50;99.90;;;14.83;76.53;102538.84;4826245;29;20515;-67
2022/09/21 05:32:55;;;;;;;6.05;5.20;;;14.40;99.90;;;14.81;77.10;102538.84;4826279;29;20042;-67
2022/09/21 05:35:32;;;;;;;5.88;5.22;;;14.40;99.90;;;14.81;77.10;102541.50;4826392;29;20046;-67
2022/09/21 05:38:07;;;;;;;4.80;4.30;;;14.40;99.90;;;14.83;77.60;102538.84;4826290;29;20050;-66
2022/09/21 05:40:36;;;;;;;6.43;4.32;;;14.30;99.90;;;14.88;77.82;102540.69;4826149;29;20057;-66
2022/09/21 05:43:05;;;;;;;6.63;4.82;;;14.40;99.90;;;14.90;77.63;102546.00;4826092;29;20054;-66
2022/09/21 05:45:34;;;;;;;7.15;5.00;;;14.40;99.90;;;14.97;77.67;102543.38;4825952;29;20485;-67
2022/09/21 05:48:14;;;;;;;6.18;4.45;;;14.50;99.90;;;14.99;77.66;102546.03;4826438;29;20043;-67
2022/09/21 05:50:55;;;;;;;8.90;5.13;;;14.50;99.90;;;14.92;77.00;102546.91;4826098;29;20474;-67
2022/09/21 05:53:53;;;;;;;4.68;4.15;;;14.50;99.90;;;14.80;76.70;102550.41;4826140;29;20050;-66
2022/09/21 05:56:36;;;;;;;4.50;3.40;;;14.40;99.90;;;14.82;76.60;102545.97;4826290;29;20103;-66
2022/09/21 05:59:26;;;;;;;6.28;3.75;;;14.40;99.90;;;14.80;77.26;102550.41;4826193;29;20054;-66
2022/09/21 06:02:04;;;;;;;4.70;3.72;;;14.30;99.90;;;14.80;76.92;102550.41;4825811;29;20058;-66
2022/09/21 06:04:38;;;;;;;5.85;3.78;;;14.40;99.90;;;14.84;76.75;102560.19;4826047;29;20054;-65
2022/09/21 06:07:06;;;;;;;4.22;3.83;;;14.40;99.90;;;14.85;76.54;102564.63;4825760;29;20054;-65
2022/09/21 06:09:34;;;;;;;4.72;3.55;;;14.40;99.90;;;14.82;76.41;102553.97;4839824;29;20679;-65
2022/09/21 06:12:10;;;;;;;5.22;4.00;;;14.40;99.90;;;14.81;76.40;102562.81;4825717;29;20054;-66
2022/09/21 06:14:38;;;;;;;9.00;4.43;;;14.40;99.90;;;14.80;76.39;102554.84;4825449;29;20054;-65
2022/09/21 06:17:06;;;;;;;5.47;4.18;;;14.40;99.90;;;14.82;76.46;102559.28;4825719;29;20087;-66
2022/09/21 06:19:36;;;;;;;9.70;4.20;;;14.40;99.90;;;15.02;76.75;102562.06;4825863;29;20125;-66
2022/09/21 06:22:04;;;;;;;12.32;5.22;;;14.50;99.90;;;15.29;76.52;102563.03;4826068;29;20054;-65
2022/09/21 06:24:33;;;;;;;7.47;4.90;;;14.80;99.90;;;14.96;75.95;102466.97;4825716;29;20095;-65
2022/09/21 06:27:01;;;;;;;9.52;5.55;;;15.00;99.90;;;15.62;75.70;102561.41;4825728;29;20042;-66
2022/09/21 06:29:30;;;;;;;7.20;4.43;;;15.20;99.90;;;15.66;75.30;102553.38;4825367;29;20046;-63
2022/09/21 06:31:58;;;;;;;12.10;5.70;;;15.20;99.90;;;15.61;75.00;102556.94;4825904;29;20062;-66
2022/09/21 06:34:27;;;;;;;11.45;5.95;;;15.20;99.90;;;15.78;74.86;102563.19;4825535;29;20107;-63
2022/09/21 06:36:56;;;;;;;10.30;5.50;;;15.30;99.90;;;15.91;74.41;102554.34;4825792;29;20043;-63
2022/09/21 06:39:25;;;;;;;13.15;6.05;;;15.50;99.90;;;15.53;73.89;102428.88;4825315;29;20133;-63
2022/09/21 06:41:53;;;;;;;9.35;5.70;;;15.80;99.90;;;16.49;72.85;102563.25;4825297;29;20038;-65
2022/09/21 06:44:22;;;;;;;12.38;5.78;;;16.10;99.90;;;16.77;71.58;102563.16;4825490;29;20523;-64
2022/09/21 06:46:50;;;;;;;13.75;6.00;;;16.30;99.90;;;16.74;70.80;102571.19;4825551;29;20400;-63
2022/09/21 06:49:19;;;;;;;9.73;6.25;;;16.30;99.90;;;16.69;71.05;102564.97;4825237;29;20145;-65
2022/09/21 06:51:48;;;;;;;11.70;5.78;;;16.20;99.90;;;16.76;70.49;102569.38;4825257;29;20054;-64
2022/09/21 06:54:17;;;;;;;10.85;5.68;;;16.30;99.90;;;16.87;69.81;102574.72;4825325;29;20046;-64
2022/09/21 06:56:46;;;;;;;11.17;5.63;;;16.30;99.90;;;17.04;68.87;102571.09;4825459;29;20073;-66
2022/09/21 06:59:14;;;;;;;11.30;5.75;;;16.50;99.90;;;17.03;69.34;102561.28;4824980;29;20931;-66
2022/09/21 07:01:43;;;;;;;10.23;6.18;;;16.50;99.90;;;16.86;68.84;102572.97;4825206;29;20129;-66
2022/09/21 07:04:11;;;;;;;14.10;5.82;;;16.40;99.90;;;16.67;70.27;102557.84;4824990;29;20050;-67
2022/09/21 07:06:39;;;;;;;11.98;5.65;;;16.20;99.90;;;16.44;69.72;102498.19;4824923;29;20054;-64
2022/09/21 07:09:08;;;;;;;9.68;5.68;;;16.30;99.90;;;17.06;69.74;102576.44;4839229;29;20050;-67
2022/09/21 07:11:58;;;;;;;11.82;5.40;;;16.50;99.90;;;17.09;69.17;102581.78;4824497;29;20089;-66
2022/09/21 07:14:27;;;;;;;9.35;4.82;;;16.50;99.90;;;17.05;68.93;102577.34;4825078;29;20061;-68
2022/09/21 07:16:55;;;;;;;15.60;5.40;;;16.50;99.90;;;16.87;69.12;102577.41;4824732;29;20051;-66
2022/09/21 07:19:23;;;;;;;11.48;5.10;;;16.40;99.90;;;16.91;68.94;102576.50;4824768;29;20050;-66
2022/09/21 07:21:54;;;;;;;13.93;5.70;;;16.50;99.90;;;16.96;69.79;102580.94;4824048;29;20050;-67
2022/09/21 07:24:22;;;;;;;;;;;16.50;99.90;;;17.09;68.97;102574.63;4839110;29;20084;-66
2022/09/21 07:26:51;;;;;;;11.70;5.53;;;16.60;99.90;;;17.35;68.82;102582.56;4824904;29;19924;-67
2022/09/21 07:29:21;;;;;;;11.40;5.70;;;16.80;99.90;;;17.69;68.63;102580.63;4824903;29;20385;-67
2022/09/21 07:31:49;;;;;;;11.38;6.15;;;17.10;99.90;;;17.78;67.08;102580.56;4824886;29;20061;-66
2022/09/21 07:34:18;;;;;;;12.70;5.80;;;17.30;99.90;;;17.84;66.00;102575.16;4824759;29;20114;-67
2022/09/21 07:36:46;;;;;;;10.45;5.45;;;17.40;99.90;;;17.42;64.83;102576.25;4824790;29;20616;-67
2022/09/21 07:39:14;;;;;;;13.32;6.22;;;17.10;99.90;;;17.78;67.16;102586.81;4824522;29;20049;-68
2022/09/21 07:41:43;;;;;;;12.95;5.82;;;17.20;99.90;;;17.54;65.78;102586.03;4824645;29;20049;-66
2022/09/21 07:44:11;;;;;;;9.10;4.57;;;17.20;99.90;;;17.09;64.98;102579.97;4824397;29;20059;-66
2022/09/21 07:46:41;;;;;;;8.98;5.00;;;16.70;99.90;;;17.26;65.00;102585.28;4824872;29;20046;-66
2022/09/21 07:49:15;;;;;;;12.10;5.78;;;16.80;99.90;;;17.17;66.34;102580.84;4838685;29;20050;-66
2022/09/21 07:51:44;;;;;;;13.30;6.07;;;16.70;99.90;;;17.43;66.36;102571.81;4824378;29;20047;-65
2022/09/21 07:54:14;;;;;;;13.43;6.03;;;16.90;99.90;;;16.78;65.52;102483.88;4824484;29;20050;-65
2022/09/21 07:59:04;;;;;;;;;;;16.90;99.90;;;17.55;65.62;102587.84;4824988;29;20050;-63
2022/09/21 07:59:31;;;;;;;12.18;5.15;;;17.00;99.90;;;18.43;64.05;102590.78;4823347;29;19924;-65
2022/09/21 08:02:01;;;;;;;10.85;5.60;;;17.80;99.90;;;17.99;62.56;102593.78;4824717;29;20141;-65
2022/09/21 08:04:29;;;;;;;16.42;5.93;;;17.70;99.90;;;18.42;62.77;102592.59;4824277;29;20062;-66
2022/09/21 08:06:58;;;;;;;13.45;5.35;;;17.90;99.90;;;17.52;62.51;102593.19;4824453;29;20442;-65
2022/09/21 08:09:26;;;;;;;11.57;5.22;;;17.30;99.90;;;17.61;64.14;102587.81;4824688;29;20052;-64
2022/09/21 08:11:55;;;;;;;11.73;5.18;;;17.10;99.90;;;17.82;63.72;102588.56;4824431;29;20053;-65
2022/09/21 08:14:24;;;;;;;9.57;5.00;;;17.30;99.90;;;17.42;62.48;102583.44;4824492;29;20054;-65
2022/09/21 08:16:53;;;;;;;9.02;5.00;;;17.10;99.90;;;17.15;62.94;102593.34;4824369;29;20051;-65
2022/09/21 08:19:25;;;;;;;15.35;6.30;;;16.80;99.90;;;17.23;64.76;102584.41;4824082;29;20061;-66
2022/09/21 08:21:54;;;;;;;9.50;5.30;;;16.70;99.90;;;18.51;63.06;102592.50;4824597;29;20046;-65
2022/09/21 08:24:26;;;;;;;10.07;5.22;;;17.80;99.90;;;18.82;61.71;102606.47;4823892;29;20050;-65
2022/09/21 08:26:54;;;;;;;10.32;3.60;;;18.40;99.90;;;18.39;57.97;102562.22;4823905;29;20057;-66
2022/09/21 08:29:24;;;;;;;6.95;3.80;;;18.30;99.90;;;18.51;57.78;102605.91;4824170;29;20111;-65
2022/09/21 08:31:53;;;;;;;13.18;4.65;;;18.20;99.90;;;18.65;58.23;102601.28;4824401;29;20111;-64
2022/09/21 08:34:23;;;;;;;9.18;3.72;;;18.20;99.90;;;18.92;57.20;102598.31;4827400;29;20401;-64
2022/09/21 08:36:51;;;;;;;9.00;3.50;;;18.50;99.90;;;18.54;54.86;102602.31;4841648;29;20149;-65
2022/09/21 08:39:23;;;;;;;6.72;3.90;;;18.30;99.90;;;18.27;56.50;102597.16;4827452;29;20315;-65
2022/09/21 08:42:10;;;;;;;12.80;4.63;;;17.90;99.90;;;18.45;56.56;102595.22;4827061;29;20083;-65
2022/09/21 08:44:42;;;;;;;8.23;3.85;;;18.00;99.90;;;18.87;55.80;102605.50;4827345;29;20069;-64
2022/09/21 08:47:16;;;;;;;7.60;3.30;;;18.40;99.90;;;19.44;54.65;102608.44;4827094;29;20130;-65
2022/09/21 08:49:53;;;;;;;5.97;2.92;;;18.90;99.90;;;18.58;53.27;102604.91;4827348;29;20510;-65
2022/09/21 08:52:23;;;;;;;7.00;3.20;;;18.40;99.90;;;18.47;54.45;102611.28;4827005;29;20426;-63
2022/09/21 08:54:56;;;;;;;7.43;4.25;;;18.10;99.90;;;18.13;55.82;102607.97;4826672;29;20488;-63
2022/09/21 08:57:29;;;;;;;9.95;3.78;;;17.70;99.90;;;18.34;54.90;102604.22;4827048;29;20107;-63
2022/09/21 09:00:00;;;;;;;8.63;3.83;;;17.80;99.90;;;18.63;56.43;102608.47;4841224;29;20149;-63
2022/09/21 09:02:59;;;;;;;6.38;3.53;;;18.10;99.90;;;18.72;54.79;102623.56;4826762;29;20057;-63
2022/09/21 09:05:46;;;;;;;13.38;3.85;;;18.20;99.90;;;19.09;53.65;102621.38;4822775;29;20065;-63
2022/09/21 09:08:46;;;;;;;9.00;4.03;;;18.60;99.90;;;18.77;53.93;102617.28;4827155;29;20502;-62
2022/09/21 09:11:31;;;;;;;9.77;3.50;;;18.40;99.90;;;19.25;52.99;102631.91;4827139;29;20054;-63
2022/09/21 09:14:24;;;;;;;8.40;4.00;;;18.70;99.90;;;18.87;52.76;102618.91;4827253;29;20137;-64
2022/09/21 09:17:11;;;;;;;7.50;3.55;;;18.50;99.90;;;19.04;53.88;102618.75;4840982;29;20402;-65
2022/09/21 09:19:46;;;;;;;6.47;3.45;;;18.50;99.90;;;19.41;53.16;102622.81;4826562;29;20137;-67
2022/09/21 09:22:22;;;;;;;7.35;3.63;;;18.90;99.90;;;19.76;52.00;102625.03;4826967;29;20046;-67
2022/09/21 09:24:52;;;;;;;8.20;3.70;;;19.30;99.90;;;20.17;50.92;102627.97;4826435;29;20082;-68
2022/09/21 09:27:27;;;;;;;9.57;3.53;;;19.70;99.90;;;20.44;50.44;102630.22;4826526;29;20145;-67
2022/09/21 09:30:04;;;;;;;8.65;3.58;;;20.10;99.90;;;20.60;50.47;102622.78;4826705;29;20054;-67
2022/09/21 09:32:41;;;;;;;5.65;3.30;;;20.20;99.90;;;21.00;49.00;102629.19;4826879;29;20082;-67
2022/09/21 09:35:28;;;;;;;7.00;3.40;;;20.60;99.90;;;21.33;48.23;102595.38;4826401;29;20054;-67
2022/09/21 09:38:04;;;;;;;9.80;3.63;;;21.10;99.90;;;21.10;46.99;102624.59;4826445;29;20061;-67
2022/09/21 09:41:01;;;;;;;6.72;3.20;;;21.00;99.90;;;20.09;49.38;102621.81;4826574;29;20061;-66
2022/09/21 09:43:45;;;;;;;9.95;4.15;;;20.00;99.90;;;19.34;49.95;102620.19;4825812;29;20453;-69
2022/09/21 09:46:21;;;;;;;10.85;3.53;;;19.20;99.90;;;19.33;49.81;102613.06;4826233;29;20137;-68
2022/09/21 09:49:13;;;;;;;9.50;3.78;;;18.90;99.90;;;20.06;49.10;102612.91;4826449;29;20133;-69
2022/09/21 09:51:42;;;;;;;9.73;3.92;;;19.40;99.90;;;19.89;48.81;102620.34;4826668;29;20133;-67
2022/09/21 09:54:16;;;;;;;9.82;3.67;;;19.40;99.90;;;20.46;47.33;102625.72;4825950;29;20042;-66
2022/09/21 09:56:44;;;;;;;4.35;3.35;;;19.90;99.90;;;20.31;46.23;102625.06;4826125;29;20050;-64
2022/09/21 09:59:25;;;;;;;7.07;3.47;;;20.00;99.90;;;20.18;47.51;102624.41;4825960;29;20077;-66
2022/09/21 10:02:02;;;;;;;6.55;3.28;;;19.70;99.90;;;20.75;47.39;102621.63;4840300;29;20500;-66
2022/09/21 10:04:30;;;;;;;6.68;3.50;;;20.20;99.90;;;21.30;46.47;102628.63;4826298;29;20046;-66
2022/09/21 10:06:59;;;;;;;7.05;3.35;;;20.80;99.90;;;21.59;46.48;102609.16;4825731;29;20107;-66
2022/09/21 10:09:30;;;;;;;7.97;3.63;;;21.30;99.90;;;21.12;44.37;102629.00;4826125;29;20413;-66
2022/09/21 10:12:02;;;;;;;8.10;3.03;;;20.90;99.90;;;21.61;45.21;102603.72;4825886;29;20053;-66
2022/09/21 10:14:37;;;;;;;5.55;3.05;;;21.20;99.90;;;21.55;43.69;102626.31;4825797;29;20046;-65
2022/09/21 10:17:08;;;;;;;10.52;3.97;;;21.30;99.90;;;22.10;44.26;102624.19;4825590;29;20045;-65
2022/09/21 10:19:37;;;;;;;6.90;2.83;;;21.60;99.90;;;22.70;43.74;102616.38;4825865;29;20058;-65
2022/09/21 10:22:05;;;;;;;5.57;2.67;;;22.30;99.90;;;22.29;41.35;102614.72;4826062;29;20073;-65
2022/09/21 10:24:39;;;;;;;6.70;3.08;;;22.20;99.90;;;22.31;41.60;102591.28;4825761;29;20050;-66
2022/09/21 10:27:14;;;;;;;6.57;2.97;;;22.20;99.90;;;22.89;41.45;102584.34;4825567;29;20123;-66
2022/09/21 10:29:44;;;;;;;7.35;2.70;;;22.70;99.90;;;23.59;41.14;102627.34;4825592;29;20455;-66
2022/09/21 10:32:22;;;;;;;6.47;2.92;;;23.30;99.90;;;23.27;39.33;102628.25;4824029;29;20073;-66
2022/09/21 10:35:17;;;;;;;8.40;2.78;;;23.10;99.90;;;23.36;40.12;102620.84;4825413;29;20124;-64